Impacts TAF Board
For situational awareness. Not to be used for flight planning purposes.
IDs:

KALS - Alamosa/Bergman Fld, CO, US

Issued at 1728 UTC 08 Aug 2020
Updated at 2111 UTC 08 Aug 2020
Potential Impact None Slight Moderate High
Time2052Z 08/22Z 08/23Z 09/00Z 09/01Z 09/02Z 09/03Z 09/04Z 09/05Z 09/06Z 09/07Z 09/08Z 09/09Z 09/10Z>>
Type OBS PRVL PRVL PRVL PRVL PRVL PRVL PRVL PRVL PRVL PRVL PRVL PRVL PRVL
VIS 10 >6 >6 >6 >6 >6 >6 >6 >6 >6 >6 >6 >6 >6
CIG -- 150 150 150 150 -- -- -- -- -- -- -- -- --
Cover FEW BKN BKN BKN BKN SKC SKC SKC SKC SKC SKC SKC SKC SKC
FltCat VFR VFR VFR VFR VFR VFR VFR VFR VFR VFR VFR VFR VFR VFR
WX -- VCTS VCTS VCTS VCTS -- -- -- -- -- -- -- -- --
WDir 150 240 240 240 240 VRB VRB VRB VRB VRB VRB VRB VRB VRB
WSpd 5 12 12 12 12 6 6 6 6 6 6 6 6 6
WGst -- 22 22 22 22 -- -- -- -- -- -- -- -- --
Raw TAF
KALS 081728Z 0818/0918 VRB05KT P6SM SKC
  FM081900 22009KT P6SM FEW150
  FM082100 24012G22KT P6SM VCTS FEW070CB BKN150
  FM090200 VRB06KT P6SM SKC


Raw METAR
KALS 082052Z AUTO 15005KT 10SM FEW110 29/M03 A3031 RMK AO2 SLP163 T02891033 56014 $
KALS 081952Z AUTO 04010KT 10SM CLR 29/M04 A3032 RMK AO2 SLP164 T02941044 $
KALS 081852Z AUTO VRB03KT 10SM CLR 28/M05 A3034 RMK AO2 SLP173 T02831050 $

METAR Board
Radar Display
Forecast Discussion
For situational awareness. Not to be used for flight planning purposes.